createdAt,value
2022-12-22T00:01:55.035Z,100037.34
2022-12-22T00:04:41.086Z,100040.66
2022-12-22T00:07:26.752Z,100038.38
2022-12-22T00:10:12.154Z,100035.13
2022-12-22T00:12:57.845Z,100017.34
2022-12-22T00:15:53.604Z,100019.56
2022-12-22T00:18:39.393Z,100021.38
2022-12-22T00:21:25.214Z,100008.47
2022-12-22T00:24:10.498Z,100008.81
2022-12-22T00:26:55.865Z,100011.53
2022-12-22T00:29:41.465Z,100003.75
2022-12-22T00:32:31.849Z,100006.34
2022-12-22T00:35:17.220Z,99999.81
2022-12-22T00:38:02.693Z,99990.22
2022-12-22T00:40:47.678Z,99977.06
2022-12-22T00:43:33.325Z,99970.72
2022-12-22T00:46:20.291Z,99963.03
2022-12-22T00:49:05.855Z,99966.28
2022-12-22T00:51:51.683Z,99962.66
2022-12-22T00:54:38.042Z,99952.69
2022-12-22T00:57:24.383Z,99945.22
2022-12-22T01:00:11.905Z,99950.03
2022-12-22T01:02:57.193Z,99948.34
2022-12-22T01:05:42.718Z,99940.56
2022-12-22T01:08:29.845Z,99937.44
2022-12-22T01:11:15.486Z,99931.06
2022-12-22T01:14:01.241Z,99937.53
2022-12-22T01:16:46.503Z,99938.78
2022-12-22T01:19:32.185Z,99926.75
2022-12-22T01:22:17.894Z,99931.59
2022-12-22T01:25:04.054Z,99926.22
2022-12-22T01:27:49.542Z,99927.75
2022-12-22T01:30:34.861Z,99927.75
2022-12-22T01:33:20.431Z,99915.69
2022-12-22T01:36:05.910Z,99915.00
2022-12-22T01:38:51.998Z,99919.63
2022-12-22T01:41:39.097Z,99913.75
2022-12-22T01:44:32.980Z,99909.50
2022-12-22T01:47:47.122Z,99895.94
2022-12-22T01:50:38.551Z,99902.28
2022-12-22T01:53:26.268Z,99896.94
2022-12-22T01:56:12.517Z,99882.56
2022-12-22T01:59:02.412Z,99886.84
2022-12-22T02:01:49.181Z,99878.34
2022-12-22T02:04:36.490Z,99874.13
2022-12-22T02:07:32.537Z,99868.75
2022-12-22T02:10:36.735Z,99867.94
2022-12-22T02:13:42.799Z,99864.31
2022-12-22T02:16:53.051Z,99860.09
2022-12-22T02:20:04.096Z,99849.03
2022-12-22T02:23:05.798Z,99848.19
2022-12-22T02:26:00.119Z,99850.97
2022-12-22T02:28:45.801Z,99842.75
2022-12-22T02:31:31.781Z,99838.59
2022-12-22T02:34:17.301Z,99841.47
2022-12-22T02:37:13.077Z,99836.44
2022-12-22T02:40:22.300Z,99837.59
2022-12-22T02:43:20.817Z,99832.22
2022-12-22T02:46:21.582Z,99824.56
2022-12-22T02:49:19.925Z,99822.06
2022-12-22T02:52:09.900Z,99823.28
2022-12-22T02:54:55.682Z,99816.34
2022-12-22T02:57:41.135Z,99813.63
2022-12-22T03:00:27.160Z,99808.97
2022-12-22T03:03:12.581Z,99802.75
2022-12-22T03:05:58.143Z,99808.19
2022-12-22T03:08:43.489Z,99798.00
2022-12-22T03:11:29.125Z,99799.94
2022-12-22T03:14:14.376Z,99795.44
2022-12-22T03:16:59.747Z,99799.50
2022-12-22T03:19:45.182Z,99791.06
2022-12-22T03:22:30.526Z,99799.09
2022-12-22T03:25:16.071Z,99795.81
2022-12-22T03:27:42.855Z,99794.28
2022-12-22T03:30:09.830Z,99798.16
2022-12-22T03:32:36.837Z,99790.00
2022-12-22T03:35:03.753Z,99789.22
2022-12-22T03:37:30.721Z,99788.44
2022-12-22T03:39:57.542Z,99794.84
2022-12-22T03:42:43.018Z,99788.06
2022-12-22T03:45:29.412Z,99789.56
2022-12-22T03:47:56.262Z,99786.06
2022-12-22T03:50:23.001Z,99787.91
2022-12-22T03:52:49.753Z,99785.97
2022-12-22T03:55:16.480Z,99780.09
2022-12-22T03:57:43.261Z,99783.34
2022-12-22T04:00:10.778Z,99780.97
2022-12-22T04:02:40.578Z,99771.94
2022-12-22T04:05:07.783Z,99782.13
2022-12-22T04:07:34.612Z,99784.97
2022-12-22T04:10:19.755Z,99782.03
2022-12-22T04:12:55.742Z,99783.63
2022-12-22T04:15:24.679Z,99790.78
2022-12-22T04:17:51.670Z,99789.50
2022-12-22T04:20:19.531Z,99785.63
2022-12-22T04:22:46.698Z,99787.69
2022-12-22T04:25:13.939Z,99789.69
2022-12-22T04:27:41.150Z,99790.78
2022-12-22T04:30:08.630Z,99796.28
2022-12-22T04:32:35.687Z,99791.50
2022-12-22T04:35:02.684Z,99800.38
2022-12-22T04:37:29.479Z,99788.44
2022-12-22T04:39:56.322Z,99799.72
2022-12-22T04:42:23.269Z,99795.50
2022-12-22T04:44:50.419Z,99803.88
2022-12-22T04:47:17.470Z,99812.84
2022-12-22T04:49:44.367Z,99807.88
2022-12-22T04:52:11.056Z,99808.59
2022-12-22T04:54:37.992Z,99813.06
2022-12-22T04:57:04.764Z,99815.59
2022-12-22T04:59:32.438Z,99818.75
2022-12-22T05:01:59.510Z,99812.72
2022-12-22T05:04:26.431Z,99821.81
2022-12-22T05:06:53.213Z,99831.56
2022-12-22T05:09:19.904Z,99834.63
2022-12-22T05:11:46.828Z,99824.47
2022-12-22T05:14:13.641Z,99827.16
2022-12-22T05:16:40.470Z,99834.66
2022-12-22T05:19:07.301Z,99834.72
2022-12-22T05:21:34.195Z,99833.94
2022-12-22T05:24:00.936Z,99836.31
2022-12-22T05:26:27.880Z,99840.59
2022-12-22T05:28:54.926Z,99842.63
2022-12-22T05:31:23.723Z,99845.47
2022-12-22T05:33:50.790Z,99845.97
2022-12-22T05:36:17.755Z,99853.19
2022-12-22T05:38:45.068Z,99857.38
2022-12-22T05:41:12.331Z,99864.84
2022-12-22T05:43:39.493Z,99870.25
2022-12-22T05:46:09.244Z,99880.34
2022-12-22T05:48:39.021Z,99881.13
2022-12-22T05:51:10.428Z,99886.28
2022-12-22T05:53:38.127Z,99893.94
2022-12-22T05:56:05.608Z,99901.13
2022-12-22T05:58:33.101Z,99913.59
2022-12-22T06:01:00.626Z,99913.13
2022-12-22T06:03:28.609Z,99915.16
2022-12-22T06:05:55.969Z,99923.00
2022-12-22T06:08:23.680Z,99938.09
2022-12-22T06:10:50.724Z,99935.28
2022-12-22T06:13:17.463Z,99936.06
2022-12-22T06:15:44.306Z,99942.63
2022-12-22T06:18:11.561Z,99952.56
2022-12-22T06:20:38.388Z,99945.88
2022-12-22T06:23:05.242Z,99950.38
2022-12-22T06:25:32.086Z,99959.00
2022-12-22T06:27:58.936Z,99966.34
2022-12-22T06:30:32.690Z,99973.19
2022-12-22T06:33:01.381Z,99971.41
2022-12-22T06:35:28.644Z,99970.25
2022-12-22T06:37:55.494Z,99986.13
2022-12-22T06:40:22.315Z,99982.88
2022-12-22T06:43:08.989Z,99990.78
2022-12-22T06:45:37.655Z,99993.53
2022-12-22T06:48:05.343Z,100006.72
2022-12-22T06:50:32.429Z,100015.25
2022-12-22T06:52:59.259Z,100025.19
2022-12-22T06:55:26.170Z,100027.47
2022-12-22T06:57:53.095Z,100034.72
2022-12-22T07:00:20.554Z,100038.31
2022-12-22T07:02:47.537Z,100038.06
2022-12-22T07:05:15.735Z,100049.78
2022-12-22T07:07:42.526Z,100053.47
2022-12-22T07:10:09.878Z,100060.13
2022-12-22T07:12:36.723Z,100073.88
2022-12-22T07:15:04.183Z,100062.97
2022-12-22T07:17:31.125Z,100078.97
2022-12-22T07:19:57.999Z,100083.19
2022-12-22T07:22:29.839Z,100088.00
2022-12-22T07:24:57.405Z,100089.75
2022-12-22T07:27:24.461Z,100092.44
2022-12-22T07:29:51.282Z,100094.38
2022-12-22T07:32:24.439Z,100098.34
2022-12-22T07:34:51.217Z,100102.66
2022-12-22T07:37:17.909Z,100113.94
2022-12-22T07:39:44.783Z,100118.84
2022-12-22T07:42:31.240Z,100127.25
2022-12-22T07:44:58.243Z,100136.34
2022-12-22T07:47:35.631Z,100141.47
2022-12-22T07:50:22.472Z,100146.56
2022-12-22T07:52:49.715Z,100146.75
2022-12-22T07:55:16.793Z,100155.56
2022-12-22T07:57:43.753Z,100156.00
2022-12-22T08:00:11.173Z,100162.53
2022-12-22T08:02:40.876Z,100166.28
2022-12-22T08:05:08.701Z,100179.97
2022-12-22T08:07:35.880Z,100186.38
2022-12-22T08:10:02.719Z,100200.50
2022-12-22T08:12:30.118Z,100206.75
2022-12-22T08:14:57.028Z,100223.50
2022-12-22T08:17:24.344Z,100226.06
2022-12-22T08:19:51.281Z,100237.66
2022-12-22T08:22:18.069Z,100249.34
2022-12-22T08:24:44.925Z,100254.63
2022-12-22T08:27:15.918Z,100259.16
2022-12-22T08:29:48.542Z,100256.78
2022-12-22T08:32:16.104Z,100258.59
2022-12-22T08:34:43.239Z,100269.88
2022-12-22T08:37:13.987Z,100272.38
2022-12-22T08:39:42.199Z,100280.75
2022-12-22T08:42:11.785Z,100290.81
2022-12-22T08:44:41.434Z,100298.81
2022-12-22T08:47:14.886Z,100298.94
2022-12-22T08:49:43.707Z,100313.34
2022-12-22T08:52:16.058Z,100301.56
2022-12-22T08:54:45.648Z,100301.88
2022-12-22T08:57:12.622Z,100302.22
2022-12-22T08:59:41.199Z,100289.59
2022-12-22T09:02:08.249Z,100297.13
2022-12-22T09:04:35.494Z,100312.44
2022-12-22T09:07:02.746Z,100310.44
2022-12-22T09:09:33.593Z,100320.81
2022-12-22T09:12:51.443Z,100328.19
2022-12-22T09:15:19.048Z,100341.44
2022-12-22T09:17:45.910Z,100342.31
2022-12-22T09:20:14.200Z,100336.44
2022-12-22T09:23:36.628Z,100332.03
2022-12-22T09:26:14.428Z,100340.16
2022-12-22T09:28:45.143Z,100340.88
2022-12-22T09:31:17.486Z,100353.91
2022-12-22T09:33:44.595Z,100353.28
2022-12-22T09:36:15.320Z,100351.81
2022-12-22T09:38:42.775Z,100360.28
2022-12-22T09:41:36.349Z,100359.09
2022-12-22T09:44:14.029Z,100350.00
2022-12-22T09:46:41.254Z,100357.75
2022-12-22T09:49:08.265Z,100357.38
2022-12-22T09:51:42.120Z,100370.50
2022-12-22T09:54:12.076Z,100369.38
2022-12-22T09:56:39.068Z,100370.56
2022-12-22T09:59:12.011Z,100370.78
2022-12-22T10:02:20.110Z,100372.19
2022-12-22T10:05:17.790Z,100376.25
2022-12-22T10:07:44.779Z,100377.16
2022-12-22T10:10:25.306Z,100389.88
2022-12-22T10:12:58.047Z,100387.13
2022-12-22T10:15:25.597Z,100389.81
2022-12-22T10:17:54.714Z,100379.66
2022-12-22T10:20:21.676Z,100391.03
2022-12-22T10:22:59.600Z,100399.31
2022-12-22T10:28:28.427Z,100398.38
2022-12-22T10:31:13.856Z,100397.31
2022-12-22T10:33:46.843Z,100394.63
2022-12-22T10:36:20.265Z,100401.81
2022-12-22T10:39:02.818Z,100393.19
2022-12-22T10:41:36.991Z,100405.75
2022-12-22T10:44:24.437Z,100404.84
2022-12-22T10:46:56.629Z,100415.03
2022-12-22T10:49:25.035Z,100406.03
2022-12-22T10:51:54.610Z,100407.03
2022-12-22T10:54:31.044Z,100410.41
2022-12-22T10:57:18.310Z,100413.88
2022-12-22T10:59:51.391Z,100423.31
2022-12-22T11:02:21.490Z,100422.91
2022-12-22T11:04:49.490Z,100425.66
2022-12-22T11:07:16.353Z,100423.16
2022-12-22T11:09:43.837Z,100423.03
2022-12-22T11:12:46.266Z,100421.97
2022-12-22T11:15:26.128Z,100433.97
2022-12-22T11:18:11.325Z,100428.56
2022-12-22T11:20:52.379Z,100420.44
2022-12-22T11:23:53.263Z,100424.03
2022-12-22T11:26:23.080Z,100414.81
2022-12-22T11:29:11.021Z,100416.84
2022-12-22T11:31:46.761Z,100416.63
2022-12-22T11:34:32.431Z,100405.81
2022-12-22T11:37:12.905Z,100405.38
2022-12-22T11:39:59.151Z,100399.09
2022-12-22T11:43:07.286Z,100397.63
2022-12-22T11:45:51.023Z,100388.19
2022-12-22T11:48:56.539Z,100368.72
2022-12-22T11:51:45.251Z,100380.47
2022-12-22T11:54:49.068Z,100381.63
2022-12-22T11:57:37.395Z,100370.69
2022-12-22T12:00:11.204Z,100377.38
2022-12-22T12:02:49.998Z,100368.59
2022-12-22T12:05:31.861Z,100362.94
2022-12-22T12:08:14.553Z,100360.63
2022-12-22T12:10:58.490Z,100350.38
2022-12-22T12:13:43.690Z,100358.41
2022-12-22T12:16:19.805Z,100353.66
2022-12-22T12:19:07.555Z,100353.50
2022-12-22T12:21:52.837Z,100349.16
2022-12-22T12:24:34.628Z,100346.22
2022-12-22T12:27:35.578Z,100337.69
2022-12-22T12:30:38.470Z,100339.59
2022-12-22T12:33:14.380Z,100340.97
2022-12-22T12:36:02.921Z,100335.69
2022-12-22T12:39:06.206Z,100342.47
2022-12-22T12:41:41.029Z,100329.78
2022-12-22T12:44:12.610Z,100327.31
2022-12-22T12:46:51.680Z,100315.06
2022-12-22T12:49:36.683Z,100320.59
2022-12-22T12:52:12.929Z,100304.59
2022-12-22T12:54:39.732Z,100318.84
2022-12-22T12:57:21.615Z,100314.00
2022-12-22T12:59:50.073Z,100317.97
2022-12-22T13:02:38.199Z,100311.28
2022-12-22T13:05:08.243Z,100310.81
2022-12-22T13:08:06.428Z,100303.03
2022-12-22T13:10:47.368Z,100302.31
2022-12-22T13:13:23.724Z,100288.13
2022-12-22T13:16:10.520Z,100291.69
2022-12-22T13:18:49.732Z,100282.09
2022-12-22T13:21:51.432Z,100287.69
2022-12-22T13:24:26.569Z,100288.47
2022-12-22T13:26:55.862Z,100285.31
2022-12-22T13:29:22.826Z,100278.63
2022-12-22T13:31:55.349Z,100280.88
2022-12-22T13:37:59.835Z,100274.09
2022-12-22T13:40:35.495Z,100261.28
2022-12-22T13:43:14.011Z,100255.25
2022-12-22T13:45:49.532Z,100254.59
2022-12-22T13:48:30.633Z,100244.84
2022-12-22T13:51:03.206Z,100239.06
2022-12-22T13:56:38.961Z,100232.84
2022-12-22T13:59:19.034Z,100224.28
2022-12-22T14:01:51.447Z,100235.69
2022-12-22T14:04:18.396Z,100231.31
2022-12-22T14:06:45.244Z,100225.13
2022-12-22T14:09:21.177Z,100211.53
2022-12-22T14:11:52.540Z,100208.53
2022-12-22T14:14:23.603Z,100204.94
2022-12-22T14:16:51.538Z,100203.00
2022-12-22T14:19:20.240Z,100204.47
2022-12-22T14:21:51.337Z,100189.66
2022-12-22T14:24:24.216Z,100196.19
2022-12-22T14:26:52.506Z,100200.56
2022-12-22T14:29:23.257Z,100201.91
2022-12-22T14:32:01.899Z,100191.94
2022-12-22T14:34:33.751Z,100192.97
2022-12-22T14:37:01.698Z,100193.00
2022-12-22T14:39:33.529Z,100190.97
2022-12-22T14:42:03.360Z,100181.69
2022-12-22T14:44:44.041Z,100181.91
2022-12-22T14:47:20.107Z,100184.47
2022-12-22T14:50:01.112Z,100184.38
2022-12-22T14:52:44.215Z,100170.72
2022-12-22T14:55:29.284Z,100179.66
2022-12-22T14:58:20.760Z,100169.06
2022-12-22T15:01:15.589Z,100172.50
2022-12-22T15:03:43.261Z,100168.19
2022-12-22T15:06:28.351Z,100163.38
2022-12-22T15:09:13.567Z,100163.72
2022-12-22T15:11:44.107Z,100160.38
2022-12-22T15:14:17.434Z,100152.34
2022-12-22T15:16:45.164Z,100153.50
2022-12-22T15:19:16.556Z,100152.38
2022-12-22T15:21:43.400Z,100149.75
2022-12-22T15:24:15.619Z,100153.25
2022-12-22T15:26:43.155Z,100152.91
2022-12-22T15:29:10.504Z,100153.56
2022-12-22T15:31:38.014Z,100146.31
2022-12-22T15:34:18.874Z,100141.38
2022-12-22T15:36:45.811Z,100146.34
2022-12-22T15:39:14.811Z,100149.13
2022-12-22T15:41:43.183Z,100144.28
2022-12-22T15:44:10.473Z,100137.59
2022-12-22T15:46:41.566Z,100140.41
2022-12-22T15:49:18.678Z,100145.78
2022-12-22T15:51:50.765Z,100138.31
2022-12-22T15:54:18.188Z,100139.59
2022-12-22T15:56:45.137Z,100144.22
2022-12-22T15:59:17.259Z,100138.19
2022-12-22T16:01:45.355Z,100134.81
2022-12-22T16:04:12.654Z,100138.22
2022-12-22T16:06:40.160Z,100126.75
2022-12-22T16:09:10.200Z,100125.72
2022-12-22T16:11:38.622Z,100121.38
2022-12-22T16:14:05.820Z,100121.94
2022-12-22T16:16:32.626Z,100116.00
2022-12-22T16:18:59.421Z,100109.69
2022-12-22T16:21:30.993Z,100107.53
2022-12-22T16:23:58.740Z,100099.63
2022-12-22T16:26:25.483Z,100100.91
2022-12-22T16:28:52.392Z,100097.19
2022-12-22T16:31:24.260Z,100097.16
2022-12-22T16:33:51.725Z,100086.50
2022-12-22T16:36:18.462Z,100077.72
2022-12-22T16:38:45.972Z,100076.59
2022-12-22T16:41:19.782Z,100067.75
2022-12-22T16:46:33.704Z,100068.97
2022-12-22T16:49:02.127Z,100064.50
2022-12-22T16:51:34.552Z,100056.25
2022-12-22T16:54:02.624Z,100059.50
2022-12-22T16:56:31.211Z,100058.63
2022-12-22T16:58:58.898Z,100058.81
2022-12-22T17:01:39.453Z,100056.31
2022-12-22T17:04:17.242Z,100063.09
2022-12-22T17:06:46.825Z,100053.66
2022-12-22T17:09:18.036Z,100056.44
2022-12-22T17:11:46.591Z,100052.19
2022-12-22T17:14:34.292Z,100047.50
2022-12-22T17:17:01.294Z,100042.19
2022-12-22T17:19:28.439Z,100031.97
2022-12-22T17:21:56.280Z,100030.00
2022-12-22T17:24:28.342Z,100042.47
2022-12-22T17:26:58.350Z,100032.25
2022-12-22T17:29:25.752Z,100036.63
2022-12-22T17:31:56.507Z,100040.81
2022-12-22T17:34:23.802Z,100045.50
2022-12-22T17:36:50.882Z,100042.47
2022-12-22T17:39:20.480Z,100049.13
2022-12-22T17:41:52.240Z,100045.34
2022-12-22T17:44:24.432Z,100047.06
2022-12-22T17:46:51.463Z,100049.50
2022-12-22T17:49:20.155Z,100048.50
2022-12-22T17:51:47.509Z,100041.44
2022-12-22T17:54:27.846Z,100044.44
2022-12-22T17:57:00.224Z,100035.66
2022-12-22T17:59:27.180Z,100034.03
2022-12-22T18:01:54.167Z,100025.00
2022-12-22T18:04:21.063Z,100025.38
2022-12-22T18:06:48.433Z,100018.09
2022-12-22T18:09:24.321Z,100014.88
2022-12-22T18:11:52.083Z,100019.41
2022-12-22T18:14:21.180Z,100020.59
2022-12-22T18:16:49.309Z,100003.19
2022-12-22T18:19:16.475Z,100019.53
2022-12-22T18:21:44.021Z,100004.09
2022-12-22T18:24:17.960Z,100012.13
2022-12-22T18:26:47.131Z,100008.38
2022-12-22T18:29:18.193Z,100010.97
2022-12-22T18:31:45.455Z,100008.31
2022-12-22T18:34:12.629Z,100013.63
2022-12-22T18:36:40.161Z,100002.78
2022-12-22T18:39:09.485Z,100008.72
2022-12-22T18:41:40.266Z,100012.53
2022-12-22T18:44:15.343Z,100010.22
2022-12-22T18:46:42.498Z,100013.81
2022-12-22T18:49:09.309Z,100022.38
2022-12-22T18:51:36.667Z,100022.50
2022-12-22T18:54:03.785Z,100020.41
2022-12-22T18:56:30.553Z,100020.91
2022-12-22T18:58:57.641Z,100022.66
2022-12-22T19:01:26.961Z,100026.06
2022-12-22T19:03:55.653Z,100016.44
2022-12-22T19:06:23.498Z,100020.69
2022-12-22T19:08:50.847Z,100032.16
2022-12-22T19:11:22.105Z,100026.59
2022-12-22T19:13:51.213Z,100039.09
2022-12-22T19:16:21.581Z,100037.72
2022-12-22T19:18:48.822Z,100034.91
2022-12-22T19:21:17.181Z,100037.53
2022-12-22T19:23:44.726Z,100031.59
2022-12-22T19:26:29.845Z,100028.19
2022-12-22T19:29:02.429Z,100024.75
2022-12-22T19:31:32.104Z,100021.47
2022-12-22T19:34:01.335Z,100033.16
2022-12-22T19:36:30.243Z,100023.22
2022-12-22T19:39:03.889Z,100025.72
2022-12-22T19:41:44.503Z,100021.72
2022-12-22T19:44:25.555Z,100027.88
2022-12-22T19:46:53.160Z,100027.88
2022-12-22T19:49:22.584Z,100030.28
2022-12-22T19:51:49.552Z,100028.50
2022-12-22T19:54:16.847Z,100030.97
2022-12-22T19:56:46.841Z,100035.94
2022-12-22T19:59:30.895Z,100035.31
2022-12-22T20:01:59.550Z,100034.00
2022-12-22T20:04:26.944Z,100042.31
2022-12-22T20:06:53.981Z,100029.28
2022-12-22T20:09:20.726Z,100034.53
2022-12-22T20:11:47.749Z,100036.53
2022-12-22T20:14:18.907Z,100039.34
2022-12-22T20:16:46.379Z,100035.56
2022-12-22T20:19:14.569Z,100031.47
2022-12-22T20:21:41.928Z,100031.72
2022-12-22T20:24:14.395Z,100015.66
2022-12-22T20:26:41.243Z,100026.53
2022-12-22T20:29:12.162Z,100020.22
2022-12-22T20:31:39.046Z,100023.38
2022-12-22T20:34:06.874Z,100013.97
2022-12-22T20:36:33.719Z,100022.84
2022-12-22T20:39:02.078Z,100022.09
2022-12-22T20:41:29.379Z,100015.94
2022-12-22T20:43:56.654Z,100019.69
2022-12-22T20:46:26.293Z,100009.69
2022-12-22T20:48:56.149Z,100016.56
2022-12-22T20:51:24.749Z,100016.59
2022-12-22T20:53:52.381Z,100026.72
2022-12-22T20:56:23.305Z,100021.59
2022-12-22T20:58:50.585Z,100009.53
2022-12-22T21:01:18.371Z,100007.03
2022-12-22T21:03:45.906Z,99999.31
2022-12-22T21:06:27.543Z,100002.41
2022-12-22T21:08:56.055Z,100013.03
2022-12-22T21:11:26.617Z,100009.81
2022-12-22T21:13:56.880Z,100013.94
2022-12-22T21:16:26.191Z,100008.97
2022-12-22T21:18:54.604Z,100019.09
2022-12-22T21:21:21.577Z,100029.97
2022-12-22T21:23:48.615Z,100019.06
2022-12-22T21:26:23.531Z,100025.47
2022-12-22T21:28:50.875Z,100020.56
2022-12-22T21:31:18.240Z,100011.84
2022-12-22T21:33:45.598Z,100008.56
2022-12-22T21:36:20.134Z,99999.56
2022-12-22T21:38:47.590Z,100010.00
2022-12-22T21:41:14.385Z,100024.75
2022-12-22T21:43:41.174Z,100023.25
2022-12-22T21:46:11.725Z,100026.56
2022-12-22T21:48:38.752Z,100027.34
2022-12-22T21:51:05.690Z,100025.88
2022-12-22T21:53:32.499Z,100024.72
2022-12-22T21:55:59.209Z,100033.91
2022-12-22T21:58:25.981Z,100038.91
2022-12-22T22:00:52.716Z,100038.00
2022-12-22T22:03:19.552Z,100038.25
2022-12-22T22:05:47.972Z,100042.78
2022-12-22T22:08:14.808Z,100038.25
2022-12-22T22:10:42.710Z,100040.56
2022-12-22T22:13:15.693Z,100043.38
2022-12-22T22:15:42.814Z,100043.44
2022-12-22T22:18:15.798Z,100040.59
2022-12-22T22:20:43.278Z,100035.16
2022-12-22T22:23:12.664Z,100035.13
2022-12-22T22:25:39.780Z,100030.56
2022-12-22T22:28:07.285Z,100033.13
2022-12-22T22:30:34.118Z,100029.47
2022-12-22T22:33:01.054Z,100022.53
2022-12-22T22:35:27.923Z,100031.34
2022-12-22T22:37:55.945Z,100026.97
2022-12-22T22:40:24.086Z,100030.66
2022-12-22T22:42:51.057Z,100035.94
2022-12-22T22:45:24.301Z,100042.41
2022-12-22T22:47:52.308Z,100045.22
2022-12-22T22:50:20.569Z,100045.19
2022-12-22T22:52:48.370Z,100047.97
2022-12-22T22:55:15.373Z,100054.41
2022-12-22T22:57:43.159Z,100045.38
2022-12-22T23:00:13.306Z,100040.63
2022-12-22T23:02:40.729Z,100039.13
2022-12-22T23:05:08.278Z,100041.50
2022-12-22T23:07:36.115Z,100040.31
2022-12-22T23:10:04.162Z,100042.56
2022-12-22T23:12:31.431Z,100036.91
2022-12-22T23:14:58.172Z,100044.16
2022-12-22T23:17:25.036Z,100038.06
2022-12-22T23:19:51.763Z,100042.91
2022-12-22T23:22:18.610Z,100046.00
2022-12-22T23:24:45.561Z,100038.84
2022-12-22T23:27:12.498Z,100047.78
2022-12-22T23:29:39.545Z,100046.28
2022-12-22T23:32:06.711Z,100053.41
2022-12-22T23:34:33.451Z,100046.13
2022-12-22T23:37:00.243Z,100057.06
2022-12-22T23:39:27.023Z,100052.50
2022-12-22T23:41:54.139Z,100059.19
2022-12-22T23:44:21.016Z,100070.28
2022-12-22T23:46:48.149Z,100060.75
2022-12-22T23:49:14.927Z,100076.06
2022-12-22T23:51:41.865Z,100080.38
2022-12-22T23:54:08.609Z,100088.19
2022-12-22T23:56:35.339Z,100077.50
2022-12-22T23:59:02.283Z,100090.97
